sensor_id;sensor_type;location;lat;lon;timestamp;P1;durP1;ratioP1;P2;durP2;ratioP2
18596;SDS011;9428;50.950;6.912;2023-04-15T00:00:56;10.20;;;5.13;;
18596;SDS011;9428;50.950;6.912;2023-04-15T00:03:44;9.88;;;4.63;;
18596;SDS011;9428;50.950;6.912;2023-04-15T00:06:31;8.85;;;4.60;;
18596;SDS011;9428;50.950;6.912;2023-04-15T00:09:19;12.48;;;4.47;;
18596;SDS011;9428;50.950;6.912;2023-04-15T00:12:06;13.60;;;4.30;;
18596;SDS011;9428;50.950;6.912;2023-04-15T00:14:54;20.02;;;6.28;;
18596;SDS011;9428;50.950;6.912;2023-04-15T00:17:44;13.07;;;5.60;;
18596;SDS011;9428;50.950;6.912;2023-04-15T00:20:32;13.10;;;5.75;;
18596;SDS011;9428;50.950;6.912;2023-04-15T00:23:19;15.43;;;6.47;;
18596;SDS011;9428;50.950;6.912;2023-04-15T00:26:07;13.38;;;6.43;;
18596;SDS011;9428;50.950;6.912;2023-04-15T00:28:54;14.77;;;6.97;;
18596;SDS011;9428;50.950;6.912;2023-04-15T00:31:41;16.30;;;7.53;;
18596;SDS011;9428;50.950;6.912;2023-04-15T00:34:30;11.60;;;6.32;;
18596;SDS011;9428;50.950;6.912;2023-04-15T00:37:17;12.35;;;5.88;;
18596;SDS011;9428;50.950;6.912;2023-04-15T00:40:05;13.45;;;6.60;;
18596;SDS011;9428;50.950;6.912;2023-04-15T00:42:56;11.85;;;6.32;;
18596;SDS011;9428;50.950;6.912;2023-04-15T00:45:43;14.02;;;6.75;;
18596;SDS011;9428;50.950;6.912;2023-04-15T00:48:31;15.77;;;7.05;;
18596;SDS011;9428;50.950;6.912;2023-04-15T00:51:20;10.77;;;6.13;;
18596;SDS011;9428;50.950;6.912;2023-04-15T00:54:07;11.40;;;5.80;;
18596;SDS011;9428;50.950;6.912;2023-04-15T00:56:55;14.98;;;5.82;;
18596;SDS011;9428;50.950;6.912;2023-04-15T00:59:43;11.43;;;5.85;;
18596;SDS011;9428;50.950;6.912;2023-04-15T01:02:31;13.35;;;6.65;;
18596;SDS011;9428;50.950;6.912;2023-04-15T01:05:19;19.58;;;6.45;;
18596;SDS011;9428;50.950;6.912;2023-04-15T01:08:08;12.07;;;5.65;;
18596;SDS011;9428;50.950;6.912;2023-04-15T01:10:55;10.60;;;4.70;;
18596;SDS011;9428;50.950;6.912;2023-04-15T01:13:44;13.70;;;4.60;;
18596;SDS011;9428;50.950;6.912;2023-04-15T01:16:32;13.00;;;5.20;;
18596;SDS011;9428;50.950;6.912;2023-04-15T01:19:19;8.13;;;4.47;;
18596;SDS011;9428;50.950;6.912;2023-04-15T01:22:07;10.93;;;4.63;;
18596;SDS011;9428;50.950;6.912;2023-04-15T01:24:57;12.20;;;4.82;;
18596;SDS011;9428;50.950;6.912;2023-04-15T01:27:50;13.15;;;4.57;;
18596;SDS011;9428;50.950;6.912;2023-04-15T01:30:37;7.53;;;3.45;;
18596;SDS011;9428;50.950;6.912;2023-04-15T01:33:25;9.18;;;4.47;;
18596;SDS011;9428;50.950;6.912;2023-04-15T01:36:12;6.85;;;3.58;;
18596;SDS011;9428;50.950;6.912;2023-04-15T01:38:59;8.48;;;3.67;;
18596;SDS011;9428;50.950;6.912;2023-04-15T01:41:46;9.80;;;3.23;;
18596;SDS011;9428;50.950;6.912;2023-04-15T01:44:35;7.50;;;3.80;;
18596;SDS011;9428;50.950;6.912;2023-04-15T01:47:23;8.45;;;3.45;;
18596;SDS011;9428;50.950;6.912;2023-04-15T01:50:10;6.07;;;3.77;;
18596;SDS011;9428;50.950;6.912;2023-04-15T01:52:58;6.55;;;3.42;;
18596;SDS011;9428;50.950;6.912;2023-04-15T01:55:45;7.72;;;3.60;;
18596;SDS011;9428;50.950;6.912;2023-04-15T01:58:32;12.57;;;4.27;;
18596;SDS011;9428;50.950;6.912;2023-04-15T02:01:21;9.77;;;4.05;;
18596;SDS011;9428;50.950;6.912;2023-04-15T02:04:09;6.93;;;3.47;;
18596;SDS011;9428;50.950;6.912;2023-04-15T02:07:00;6.80;;;3.90;;
18596;SDS011;9428;50.950;6.912;2023-04-15T02:09:48;8.27;;;3.77;;
18596;SDS011;9428;50.950;6.912;2023-04-15T02:12:35;8.35;;;4.15;;
18596;SDS011;9428;50.950;6.912;2023-04-15T02:15:22;7.18;;;3.72;;
18596;SDS011;9428;50.950;6.912;2023-04-15T02:18:11;8.13;;;3.67;;
18596;SDS011;9428;50.950;6.912;2023-04-15T02:20:58;6.68;;;3.55;;
18596;SDS011;9428;50.950;6.912;2023-04-15T02:23:45;6.53;;;3.22;;
18596;SDS011;9428;50.950;6.912;2023-04-15T02:26:33;9.23;;;3.87;;
18596;SDS011;9428;50.950;6.912;2023-04-15T02:29:20;9.37;;;4.00;;
18596;SDS011;9428;50.950;6.912;2023-04-15T02:32:08;6.60;;;3.50;;
18596;SDS011;9428;50.950;6.912;2023-04-15T02:34:58;6.93;;;3.33;;
18596;SDS011;9428;50.950;6.912;2023-04-15T02:37:48;9.40;;;3.87;;
18596;SDS011;9428;50.950;6.912;2023-04-15T02:40:36;4.65;;;3.00;;
18596;SDS011;9428;50.950;6.912;2023-04-15T02:43:23;5.20;;;3.00;;
18596;SDS011;9428;50.950;6.912;2023-04-15T02:46:10;5.33;;;2.70;;
18596;SDS011;9428;50.950;6.912;2023-04-15T02:48:59;8.77;;;3.03;;
18596;SDS011;9428;50.950;6.912;2023-04-15T02:51:49;7.65;;;3.42;;
18596;SDS011;9428;50.950;6.912;2023-04-15T02:54:36;8.10;;;3.03;;
18596;SDS011;9428;50.950;6.912;2023-04-15T02:57:23;6.07;;;2.60;;
18596;SDS011;9428;50.950;6.912;2023-04-15T03:00:11;9.20;;;3.00;;
18596;SDS011;9428;50.950;6.912;2023-04-15T03:03:01;4.05;;;3.17;;
18596;SDS011;9428;50.950;6.912;2023-04-15T03:05:49;7.97;;;3.07;;
18596;SDS011;9428;50.950;6.912;2023-04-15T03:08:38;9.55;;;3.63;;
18596;SDS011;9428;50.950;6.912;2023-04-15T03:11:26;6.97;;;2.60;;
18596;SDS011;9428;50.950;6.912;2023-04-15T03:14:14;8.20;;;3.45;;
18596;SDS011;9428;50.950;6.912;2023-04-15T03:17:01;9.32;;;3.65;;
18596;SDS011;9428;50.950;6.912;2023-04-15T03:19:48;5.43;;;3.42;;
18596;SDS011;9428;50.950;6.912;2023-04-15T03:22:36;8.30;;;3.30;;
18596;SDS011;9428;50.950;6.912;2023-04-15T03:25:24;8.60;;;3.58;;
18596;SDS011;9428;50.950;6.912;2023-04-15T03:28:11;7.73;;;3.47;;
18596;SDS011;9428;50.950;6.912;2023-04-15T03:30:59;9.50;;;3.30;;
18596;SDS011;9428;50.950;6.912;2023-04-15T03:33:46;7.20;;;3.30;;
18596;SDS011;9428;50.950;6.912;2023-04-15T03:36:33;7.60;;;2.93;;
18596;SDS011;9428;50.950;6.912;2023-04-15T03:39:20;6.03;;;3.35;;
18596;SDS011;9428;50.950;6.912;2023-04-15T03:42:09;7.17;;;3.63;;
18596;SDS011;9428;50.950;6.912;2023-04-15T03:44:56;12.00;;;4.20;;
18596;SDS011;9428;50.950;6.912;2023-04-15T03:47:43;8.13;;;3.70;;
18596;SDS011;9428;50.950;6.912;2023-04-15T03:50:30;8.68;;;4.45;;
18596;SDS011;9428;50.950;6.912;2023-04-15T03:53:18;7.10;;;3.85;;
18596;SDS011;9428;50.950;6.912;2023-04-15T03:56:06;9.40;;;4.45;;
18596;SDS011;9428;50.950;6.912;2023-04-15T03:58:55;7.67;;;3.37;;
18596;SDS011;9428;50.950;6.912;2023-04-15T04:01:42;9.80;;;3.60;;
18596;SDS011;9428;50.950;6.912;2023-04-15T04:04:29;10.50;;;3.87;;
18596;SDS011;9428;50.950;6.912;2023-04-15T04:07:17;6.90;;;3.80;;
18596;SDS011;9428;50.950;6.912;2023-04-15T04:10:04;7.97;;;4.30;;
18596;SDS011;9428;50.950;6.912;2023-04-15T04:12:52;6.00;;;3.77;;
18596;SDS011;9428;50.950;6.912;2023-04-15T04:15:41;7.60;;;4.10;;
18596;SDS011;9428;50.950;6.912;2023-04-15T04:18:28;10.17;;;4.50;;
18596;SDS011;9428;50.950;6.912;2023-04-15T04:21:15;9.33;;;4.53;;
18596;SDS011;9428;50.950;6.912;2023-04-15T04:24:03;9.97;;;4.47;;
18596;SDS011;9428;50.950;6.912;2023-04-15T04:26:50;9.77;;;4.30;;
18596;SDS011;9428;50.950;6.912;2023-04-15T04:29:37;6.23;;;4.23;;
18596;SDS011;9428;50.950;6.912;2023-04-15T04:32:26;8.57;;;4.27;;
18596;SDS011;9428;50.950;6.912;2023-04-15T04:35:14;9.10;;;4.47;;
18596;SDS011;9428;50.950;6.912;2023-04-15T04:38:01;8.87;;;4.80;;
18596;SDS011;9428;50.950;6.912;2023-04-15T04:40:48;6.73;;;4.70;;
18596;SDS011;9428;50.950;6.912;2023-04-15T04:43:35;10.23;;;4.23;;
18596;SDS011;9428;50.950;6.912;2023-04-15T04:46:23;9.90;;;5.13;;
18596;SDS011;9428;50.950;6.912;2023-04-15T04:49:11;9.70;;;4.87;;
18596;SDS011;9428;50.950;6.912;2023-04-15T04:51:58;11.13;;;5.23;;
18596;SDS011;9428;50.950;6.912;2023-04-15T04:54:46;10.70;;;5.47;;
18596;SDS011;9428;50.950;6.912;2023-04-15T04:57:33;9.57;;;5.40;;
18596;SDS011;9428;50.950;6.912;2023-04-15T05:00:22;10.13;;;4.57;;
18596;SDS011;9428;50.950;6.912;2023-04-15T05:03:09;8.27;;;4.73;;
18596;SDS011;9428;50.950;6.912;2023-04-15T05:05:58;12.00;;;5.30;;
18596;SDS011;9428;50.950;6.912;2023-04-15T05:08:47;8.70;;;4.87;;
18596;SDS011;9428;50.950;6.912;2023-04-15T05:11:34;7.50;;;4.70;;
18596;SDS011;9428;50.950;6.912;2023-04-15T05:14:22;10.17;;;5.00;;
18596;SDS011;9428;50.950;6.912;2023-04-15T05:17:09;11.70;;;4.93;;
18596;SDS011;9428;50.950;6.912;2023-04-15T05:19:56;8.47;;;4.43;;
18596;SDS011;9428;50.950;6.912;2023-04-15T05:22:48;12.47;;;5.73;;
18596;SDS011;9428;50.950;6.912;2023-04-15T05:25:36;15.43;;;5.23;;
18596;SDS011;9428;50.950;6.912;2023-04-15T05:28:23;13.43;;;4.83;;
18596;SDS011;9428;50.950;6.912;2023-04-15T05:31:12;8.07;;;4.97;;
18596;SDS011;9428;50.950;6.912;2023-04-15T05:34:00;10.73;;;4.90;;
18596;SDS011;9428;50.950;6.912;2023-04-15T05:36:47;13.07;;;5.73;;
18596;SDS011;9428;50.950;6.912;2023-04-15T05:39:36;9.43;;;4.90;;
18596;SDS011;9428;50.950;6.912;2023-04-15T05:42:23;11.50;;;5.33;;
18596;SDS011;9428;50.950;6.912;2023-04-15T05:45:10;14.87;;;4.90;;
18596;SDS011;9428;50.950;6.912;2023-04-15T05:47:58;10.43;;;4.97;;
18596;SDS011;9428;50.950;6.912;2023-04-15T05:50:45;9.07;;;4.83;;
18596;SDS011;9428;50.950;6.912;2023-04-15T05:53:32;11.67;;;4.27;;
18596;SDS011;9428;50.950;6.912;2023-04-15T05:56:21;8.00;;;4.73;;
18596;SDS011;9428;50.950;6.912;2023-04-15T05:59:11;10.33;;;5.23;;
18596;SDS011;9428;50.950;6.912;2023-04-15T06:01:58;12.20;;;4.50;;
18596;SDS011;9428;50.950;6.912;2023-04-15T06:04:45;7.20;;;4.63;;
18596;SDS011;9428;50.950;6.912;2023-04-15T06:07:32;10.85;;;4.68;;
18596;SDS011;9428;50.950;6.912;2023-04-15T06:10:20;11.63;;;5.47;;
18596;SDS011;9428;50.950;6.912;2023-04-15T06:13:09;7.13;;;5.10;;
18596;SDS011;9428;50.950;6.912;2023-04-15T06:15:56;10.30;;;5.40;;
18596;SDS011;9428;50.950;6.912;2023-04-15T06:18:44;7.68;;;4.68;;
18596;SDS011;9428;50.950;6.912;2023-04-15T06:21:31;14.43;;;5.60;;
18596;SDS011;9428;50.950;6.912;2023-04-15T06:24:18;9.27;;;5.57;;
18596;SDS011;9428;50.950;6.912;2023-04-15T06:27:05;8.45;;;5.43;;
18596;SDS011;9428;50.950;6.912;2023-04-15T06:29:54;9.05;;;5.22;;
18596;SDS011;9428;50.950;6.912;2023-04-15T06:32:41;12.65;;;5.18;;
18596;SDS011;9428;50.950;6.912;2023-04-15T06:35:28;7.38;;;5.22;;
18596;SDS011;9428;50.950;6.912;2023-04-15T06:38:16;8.18;;;4.68;;
18596;SDS011;9428;50.950;6.912;2023-04-15T06:41:03;11.27;;;5.00;;
18596;SDS011;9428;50.950;6.912;2023-04-15T06:43:50;8.10;;;4.75;;
18596;SDS011;9428;50.950;6.912;2023-04-15T06:46:39;8.30;;;5.10;;
18596;SDS011;9428;50.950;6.912;2023-04-15T06:49:26;12.05;;;5.03;;
18596;SDS011;9428;50.950;6.912;2023-04-15T06:52:13;7.80;;;4.47;;
18596;SDS011;9428;50.950;6.912;2023-04-15T06:55:01;7.90;;;4.95;;
18596;SDS011;9428;50.950;6.912;2023-04-15T06:57:49;8.90;;;4.65;;
18596;SDS011;9428;50.950;6.912;2023-04-15T07:00:36;7.22;;;4.55;;
18596;SDS011;9428;50.950;6.912;2023-04-15T07:03:26;9.20;;;4.50;;
18596;SDS011;9428;50.950;6.912;2023-04-15T07:06:13;7.03;;;4.60;;
18596;SDS011;9428;50.950;6.912;2023-04-15T07:09:00;6.63;;;4.60;;
18596;SDS011;9428;50.950;6.912;2023-04-15T07:11:49;8.05;;;4.35;;
18596;SDS011;9428;50.950;6.912;2023-04-15T07:14:36;8.27;;;4.65;;
18596;SDS011;9428;50.950;6.912;2023-04-15T07:17:24;9.77;;;4.90;;
18596;SDS011;9428;50.950;6.912;2023-04-15T07:20:13;6.57;;;4.95;;
18596;SDS011;9428;50.950;6.912;2023-04-15T07:23:00;10.13;;;5.63;;
18596;SDS011;9428;50.950;6.912;2023-04-15T07:25:47;8.00;;;5.03;;
18596;SDS011;9428;50.950;6.912;2023-04-15T07:28:35;9.23;;;5.53;;
18596;SDS011;9428;50.950;6.912;2023-04-15T07:31:22;10.65;;;5.93;;
18596;SDS011;9428;50.950;6.912;2023-04-15T07:34:09;10.75;;;5.82;;
18596;SDS011;9428;50.950;6.912;2023-04-15T07:36:58;9.02;;;6.15;;
18596;SDS011;9428;50.950;6.912;2023-04-15T07:39:45;11.10;;;6.18;;
18596;SDS011;9428;50.950;6.912;2023-04-15T07:42:33;7.35;;;5.30;;
18596;SDS011;9428;50.950;6.912;2023-04-15T07:45:21;8.57;;;5.82;;
18596;SDS011;9428;50.950;6.912;2023-04-15T07:48:08;9.00;;;5.70;;
18596;SDS011;9428;50.950;6.912;2023-04-15T07:50:55;11.82;;;6.07;;
18596;SDS011;9428;50.950;6.912;2023-04-15T07:53:44;10.20;;;6.20;;
18596;SDS011;9428;50.950;6.912;2023-04-15T07:56:31;11.00;;;6.22;;
18596;SDS011;9428;50.950;6.912;2023-04-15T07:59:18;8.05;;;6.22;;
18596;SDS011;9428;50.950;6.912;2023-04-15T08:02:05;9.57;;;5.63;;
18596;SDS011;9428;50.950;6.912;2023-04-15T08:04:54;8.93;;;5.35;;
18596;SDS011;9428;50.950;6.912;2023-04-15T08:07:42;9.60;;;5.80;;
18596;SDS011;9428;50.950;6.912;2023-04-15T08:10:30;11.15;;;5.72;;
18596;SDS011;9428;50.950;6.912;2023-04-15T08:13:18;8.32;;;5.68;;
18596;SDS011;9428;50.950;6.912;2023-04-15T08:16:12;6.78;;;3.95;;
18596;SDS011;9428;50.950;6.912;2023-04-15T08:19:02;7.38;;;3.15;;
18596;SDS011;9428;50.950;6.912;2023-04-15T08:21:50;4.85;;;2.60;;
18596;SDS011;9428;50.950;6.912;2023-04-15T08:24:37;3.08;;;1.92;;
18596;SDS011;9428;50.950;6.912;2023-04-15T08:27:25;2.83;;;2.22;;
18596;SDS011;9428;50.950;6.912;2023-04-15T08:30:13;5.25;;;2.60;;
18596;SDS011;9428;50.950;6.912;2023-04-15T08:33:02;3.88;;;2.50;;
18596;SDS011;9428;50.950;6.912;2023-04-15T08:35:49;2.47;;;2.03;;
18596;SDS011;9428;50.950;6.912;2023-04-15T08:38:37;1.80;;;1.40;;
18596;SDS011;9428;50.950;6.912;2023-04-15T08:41:24;5.43;;;2.20;;
18596;SDS011;9428;50.950;6.912;2023-04-15T08:44:14;2.35;;;1.65;;
18596;SDS011;9428;50.950;6.912;2023-04-15T08:47:01;3.13;;;1.90;;
18596;SDS011;9428;50.950;6.912;2023-04-15T08:49:50;4.82;;;2.10;;
18596;SDS011;9428;50.950;6.912;2023-04-15T08:52:40;2.97;;;1.88;;
18596;SDS011;9428;50.950;6.912;2023-04-15T08:55:28;3.10;;;2.28;;
18596;SDS011;9428;50.950;6.912;2023-04-15T08:58:19;4.45;;;2.60;;
18596;SDS011;9428;50.950;6.912;2023-04-15T09:01:08;2.85;;;2.10;;
18596;SDS011;9428;50.950;6.912;2023-04-15T09:03:55;2.17;;;1.77;;
18596;SDS011;9428;50.950;6.912;2023-04-15T09:06:44;2.55;;;1.80;;
18596;SDS011;9428;50.950;6.912;2023-04-15T09:09:32;3.80;;;2.00;;
18596;SDS011;9428;50.950;6.912;2023-04-15T09:12:21;5.55;;;2.22;;
18596;SDS011;9428;50.950;6.912;2023-04-15T09:15:10;5.38;;;2.45;;
18596;SDS011;9428;50.950;6.912;2023-04-15T09:17:59;3.55;;;2.40;;
18596;SDS011;9428;50.950;6.912;2023-04-15T09:20:46;4.13;;;2.63;;
18596;SDS011;9428;50.950;6.912;2023-04-15T09:23:34;3.70;;;2.15;;
18596;SDS011;9428;50.950;6.912;2023-04-15T09:26:29;3.42;;;1.77;;
18596;SDS011;9428;50.950;6.912;2023-04-15T09:29:17;4.43;;;3.20;;
18596;SDS011;9428;50.950;6.912;2023-04-15T09:32:10;3.28;;;1.90;;
18596;SDS011;9428;50.950;6.912;2023-04-15T09:35:02;4.13;;;2.80;;
18596;SDS011;9428;50.950;6.912;2023-04-15T09:38:01;2.85;;;2.47;;
18596;SDS011;9428;50.950;6.912;2023-04-15T09:40:49;2.92;;;2.17;;
18596;SDS011;9428;50.950;6.912;2023-04-15T09:43:37;4.28;;;2.35;;
18596;SDS011;9428;50.950;6.912;2023-04-15T09:46:40;3.55;;;2.38;;
18596;SDS011;9428;50.950;6.912;2023-04-15T09:49:28;3.83;;;2.30;;
18596;SDS011;9428;50.950;6.912;2023-04-15T09:52:16;3.17;;;2.25;;
18596;SDS011;9428;50.950;6.912;2023-04-15T09:55:04;4.50;;;2.72;;
18596;SDS011;9428;50.950;6.912;2023-04-15T09:57:52;4.60;;;2.50;;
18596;SDS011;9428;50.950;6.912;2023-04-15T10:00:39;5.47;;;2.10;;
18596;SDS011;9428;50.950;6.912;2023-04-15T10:03:27;3.58;;;2.40;;
18596;SDS011;9428;50.950;6.912;2023-04-15T10:06:16;3.08;;;2.75;;
18596;SDS011;9428;50.950;6.912;2023-04-15T10:09:05;3.17;;;2.67;;
18596;SDS011;9428;50.950;6.912;2023-04-15T10:11:53;4.85;;;3.35;;
18596;SDS011;9428;50.950;6.912;2023-04-15T10:14:41;4.60;;;2.40;;
18596;SDS011;9428;50.950;6.912;2023-04-15T10:17:29;3.90;;;2.40;;
18596;SDS011;9428;50.950;6.912;2023-04-15T10:20:19;4.72;;;2.90;;
18596;SDS011;9428;50.950;6.912;2023-04-15T10:23:09;4.68;;;2.85;;
18596;SDS011;9428;50.950;6.912;2023-04-15T10:25:59;3.38;;;2.72;;
18596;SDS011;9428;50.950;6.912;2023-04-15T10:28:47;4.88;;;3.08;;
18596;SDS011;9428;50.950;6.912;2023-04-15T10:31:34;3.65;;;2.97;;
18596;SDS011;9428;50.950;6.912;2023-04-15T10:34:22;3.67;;;3.20;;
18596;SDS011;9428;50.950;6.912;2023-04-15T10:37:11;5.32;;;3.25;;
18596;SDS011;9428;50.950;6.912;2023-04-15T10:39:58;4.13;;;2.95;;
18596;SDS011;9428;50.950;6.912;2023-04-15T10:42:46;3.85;;;3.03;;
18596;SDS011;9428;50.950;6.912;2023-04-15T10:45:37;3.17;;;2.85;;
18596;SDS011;9428;50.950;6.912;2023-04-15T10:48:24;3.25;;;2.95;;
18596;SDS011;9428;50.950;6.912;2023-04-15T10:51:12;9.40;;;3.22;;
18596;SDS011;9428;50.950;6.912;2023-04-15T10:53:59;3.10;;;2.75;;
18596;SDS011;9428;50.950;6.912;2023-04-15T10:56:48;3.75;;;2.80;;
18596;SDS011;9428;50.950;6.912;2023-04-15T10:59:59;3.03;;;2.35;;
18596;SDS011;9428;50.950;6.912;2023-04-15T11:02:57;2.78;;;2.40;;
18596;SDS011;9428;50.950;6.912;2023-04-15T11:05:51;2.53;;;2.33;;
18596;SDS011;9428;50.950;6.912;2023-04-15T11:08:52;4.55;;;2.92;;
18596;SDS011;9428;50.950;6.912;2023-04-15T11:14:55;3.60;;;2.97;;
18596;SDS011;9428;50.950;6.912;2023-04-15T11:17:43;6.00;;;2.90;;
18596;SDS011;9428;50.950;6.912;2023-04-15T11:20:30;4.95;;;3.40;;
18596;SDS011;9428;50.950;6.912;2023-04-15T11:23:18;3.40;;;2.78;;
18596;SDS011;9428;50.950;6.912;2023-04-15T11:26:13;3.92;;;2.50;;
18596;SDS011;9428;50.950;6.912;2023-04-15T11:29:00;2.90;;;2.50;;
18596;SDS011;9428;50.950;6.912;2023-04-15T11:31:49;4.00;;;2.47;;
18596;SDS011;9428;50.950;6.912;2023-04-15T11:34:36;3.78;;;3.20;;
18596;SDS011;9428;50.950;6.912;2023-04-15T11:37:27;7.18;;;3.25;;
18596;SDS011;9428;50.950;6.912;2023-04-15T11:40:14;3.40;;;2.90;;
18596;SDS011;9428;50.950;6.912;2023-04-15T11:43:03;2.30;;;2.10;;
18596;SDS011;9428;50.950;6.912;2023-04-15T11:45:52;3.35;;;2.85;;
18596;SDS011;9428;50.950;6.912;2023-04-15T11:48:42;3.53;;;2.88;;
18596;SDS011;9428;50.950;6.912;2023-04-15T11:51:31;2.38;;;2.17;;
18596;SDS011;9428;50.950;6.912;2023-04-15T11:54:18;2.83;;;2.50;;
18596;SDS011;9428;50.950;6.912;2023-04-15T11:57:06;3.83;;;2.85;;
18596;SDS011;9428;50.950;6.912;2023-04-15T11:59:53;2.97;;;2.75;;
18596;SDS011;9428;50.950;6.912;2023-04-15T12:02:41;5.35;;;3.65;;
18596;SDS011;9428;50.950;6.912;2023-04-15T12:05:29;3.95;;;3.65;;
18596;SDS011;9428;50.950;6.912;2023-04-15T12:08:17;3.95;;;3.55;;
18596;SDS011;9428;50.950;6.912;2023-04-15T12:11:04;3.70;;;3.40;;
18596;SDS011;9428;50.950;6.912;2023-04-15T12:13:52;4.43;;;4.00;;
18596;SDS011;9428;50.950;6.912;2023-04-15T12:16:41;5.63;;;3.83;;
18596;SDS011;9428;50.950;6.912;2023-04-15T12:19:31;4.53;;;3.85;;
18596;SDS011;9428;50.950;6.912;2023-04-15T12:22:22;8.68;;;4.30;;
18596;SDS011;9428;50.950;6.912;2023-04-15T12:25:10;4.35;;;3.95;;
18596;SDS011;9428;50.950;6.912;2023-04-15T12:27:57;4.38;;;3.97;;
18596;SDS011;9428;50.950;6.912;2023-04-15T12:30:48;4.18;;;3.70;;
18596;SDS011;9428;50.950;6.912;2023-04-15T12:33:36;5.78;;;3.83;;
18596;SDS011;9428;50.950;6.912;2023-04-15T12:36:24;3.83;;;3.53;;
18596;SDS011;9428;50.950;6.912;2023-04-15T12:39:13;5.18;;;3.97;;
18596;SDS011;9428;50.950;6.912;2023-04-15T12:42:00;4.40;;;3.90;;
18596;SDS011;9428;50.950;6.912;2023-04-15T12:44:48;4.97;;;3.55;;
18596;SDS011;9428;50.950;6.912;2023-04-15T12:47:35;3.50;;;3.20;;
18596;SDS011;9428;50.950;6.912;2023-04-15T12:50:23;3.50;;;3.15;;
18596;SDS011;9428;50.950;6.912;2023-04-15T12:53:10;3.50;;;2.90;;
18596;SDS011;9428;50.950;6.912;2023-04-15T12:55:59;4.20;;;3.13;;
18596;SDS011;9428;50.950;6.912;2023-04-15T12:58:46;4.97;;;3.60;;
18596;SDS011;9428;50.950;6.912;2023-04-15T13:01:33;3.75;;;3.25;;
18596;SDS011;9428;50.950;6.912;2023-04-15T13:04:21;3.90;;;3.50;;
18596;SDS011;9428;50.950;6.912;2023-04-15T13:07:08;4.18;;;3.22;;
18596;SDS011;9428;50.950;6.912;2023-04-15T13:09:57;4.20;;;3.20;;
18596;SDS011;9428;50.950;6.912;2023-04-15T13:12:47;3.80;;;3.40;;
18596;SDS011;9428;50.950;6.912;2023-04-15T13:15:36;4.78;;;2.83;;
18596;SDS011;9428;50.950;6.912;2023-04-15T13:18:24;4.85;;;3.20;;
18596;SDS011;9428;50.950;6.912;2023-04-15T13:21:11;4.75;;;3.15;;
18596;SDS011;9428;50.950;6.912;2023-04-15T13:23:58;5.18;;;3.40;;
18596;SDS011;9428;50.950;6.912;2023-04-15T13:26:46;3.60;;;2.88;;
18596;SDS011;9428;50.950;6.912;2023-04-15T13:29:34;3.60;;;2.90;;
18596;SDS011;9428;50.950;6.912;2023-04-15T13:32:22;4.03;;;2.60;;
18596;SDS011;9428;50.950;6.912;2023-04-15T13:35:09;3.08;;;2.65;;
18596;SDS011;9428;50.950;6.912;2023-04-15T13:37:56;6.05;;;3.80;;
18596;SDS011;9428;50.950;6.912;2023-04-15T13:40:43;5.07;;;3.25;;
18596;SDS011;9428;50.950;6.912;2023-04-15T13:43:31;4.57;;;3.55;;
18596;SDS011;9428;50.950;6.912;2023-04-15T13:46:20;7.15;;;4.18;;
18596;SDS011;9428;50.950;6.912;2023-04-15T13:49:07;6.15;;;4.53;;
18596;SDS011;9428;50.950;6.912;2023-04-15T13:51:54;4.82;;;4.05;;
18596;SDS011;9428;50.950;6.912;2023-04-15T13:54:41;5.10;;;3.78;;
18596;SDS011;9428;50.950;6.912;2023-04-15T13:57:29;8.02;;;3.53;;
18596;SDS011;9428;50.950;6.912;2023-04-15T14:00:17;5.82;;;4.30;;
18596;SDS011;9428;50.950;6.912;2023-04-15T14:03:06;3.90;;;3.25;;
18596;SDS011;9428;50.950;6.912;2023-04-15T14:05:53;5.75;;;3.47;;
18596;SDS011;9428;50.950;6.912;2023-04-15T14:08:41;5.78;;;3.55;;
18596;SDS011;9428;50.950;6.912;2023-04-15T14:11:28;7.20;;;3.58;;
18596;SDS011;9428;50.950;6.912;2023-04-15T14:14:15;6.40;;;3.25;;
18596;SDS011;9428;50.950;6.912;2023-04-15T14:17:03;3.83;;;3.00;;
18596;SDS011;9428;50.950;6.912;2023-04-15T14:19:52;5.55;;;2.90;;
18596;SDS011;9428;50.950;6.912;2023-04-15T14:22:39;6.40;;;3.70;;
18596;SDS011;9428;50.950;6.912;2023-04-15T14:25:27;4.75;;;3.42;;
18596;SDS011;9428;50.950;6.912;2023-04-15T14:28:14;5.03;;;3.38;;
18596;SDS011;9428;50.950;6.912;2023-04-15T14:31:01;4.65;;;3.47;;
18596;SDS011;9428;50.950;6.912;2023-04-15T14:33:49;5.53;;;3.75;;
18596;SDS011;9428;50.950;6.912;2023-04-15T14:36:37;4.57;;;3.97;;
18596;SDS011;9428;50.950;6.912;2023-04-15T14:39:26;6.43;;;4.50;;
18596;SDS011;9428;50.950;6.912;2023-04-15T14:42:13;5.35;;;4.72;;
18596;SDS011;9428;50.950;6.912;2023-04-15T14:45:00;8.00;;;6.13;;
18596;SDS011;9428;50.950;6.912;2023-04-15T14:47:47;7.60;;;6.32;;
18596;SDS011;9428;50.950;6.912;2023-04-15T14:50:35;7.50;;;5.90;;
18596;SDS011;9428;50.950;6.912;2023-04-15T14:53:23;7.35;;;5.55;;
18596;SDS011;9428;50.950;6.912;2023-04-15T14:56:10;6.97;;;5.85;;
18596;SDS011;9428;50.950;6.912;2023-04-15T14:58:58;9.38;;;5.28;;
18596;SDS011;9428;50.950;6.912;2023-04-15T15:01:45;8.15;;;4.82;;
18596;SDS011;9428;50.950;6.912;2023-04-15T15:04:32;7.88;;;4.43;;
18596;SDS011;9428;50.950;6.912;2023-04-15T15:07:21;9.30;;;4.72;;
18596;SDS011;9428;50.950;6.912;2023-04-15T15:10:09;9.95;;;5.10;;
18596;SDS011;9428;50.950;6.912;2023-04-15T15:12:56;8.73;;;6.70;;
18596;SDS011;9428;50.950;6.912;2023-04-15T15:15:44;8.27;;;6.57;;
18596;SDS011;9428;50.950;6.912;2023-04-15T15:18:34;16.50;;;7.35;;
18596;SDS011;9428;50.950;6.912;2023-04-15T15:21:21;8.70;;;7.13;;
18596;SDS011;9428;50.950;6.912;2023-04-15T15:24:08;11.85;;;8.02;;
18596;SDS011;9428;50.950;6.912;2023-04-15T15:26:57;9.20;;;7.57;;
18596;SDS011;9428;50.950;6.912;2023-04-15T15:29:44;9.02;;;5.55;;
18596;SDS011;9428;50.950;6.912;2023-04-15T15:32:31;8.35;;;5.47;;
18596;SDS011;9428;50.950;6.912;2023-04-15T15:35:19;7.68;;;5.82;;
18596;SDS011;9428;50.950;6.912;2023-04-15T15:38:07;6.93;;;5.35;;
18596;SDS011;9428;50.950;6.912;2023-04-15T15:40:56;6.30;;;4.40;;
18596;SDS011;9428;50.950;6.912;2023-04-15T15:43:45;4.78;;;3.90;;
18596;SDS011;9428;50.950;6.912;2023-04-15T15:46:32;5.15;;;4.28;;
18596;SDS011;9428;50.950;6.912;2023-04-15T15:49:19;6.85;;;4.30;;
18596;SDS011;9428;50.950;6.912;2023-04-15T15:52:07;6.25;;;4.28;;
18596;SDS011;9428;50.950;6.912;2023-04-15T15:54:54;5.88;;;3.92;;
18596;SDS011;9428;50.950;6.912;2023-04-15T15:57:41;5.07;;;3.85;;
18596;SDS011;9428;50.950;6.912;2023-04-15T16:00:30;6.95;;;4.10;;
18596;SDS011;9428;50.950;6.912;2023-04-15T16:03:17;8.57;;;5.32;;
18596;SDS011;9428;50.950;6.912;2023-04-15T16:06:04;12.32;;;6.20;;
18596;SDS011;9428;50.950;6.912;2023-04-15T16:08:51;5.80;;;5.03;;
18596;SDS011;9428;50.950;6.912;2023-04-15T16:11:40;6.72;;;4.85;;
18596;SDS011;9428;50.950;6.912;2023-04-15T16:14:27;7.88;;;5.10;;
18596;SDS011;9428;50.950;6.912;2023-04-15T16:17:16;9.93;;;5.28;;
18596;SDS011;9428;50.950;6.912;2023-04-15T16:20:03;6.22;;;4.75;;
18596;SDS011;9428;50.950;6.912;2023-04-15T16:22:51;6.25;;;5.05;;
18596;SDS011;9428;50.950;6.912;2023-04-15T16:25:40;7.82;;;4.90;;
18596;SDS011;9428;50.950;6.912;2023-04-15T16:28:28;6.90;;;4.93;;
18596;SDS011;9428;50.950;6.912;2023-04-15T16:31:15;8.23;;;4.43;;
18596;SDS011;9428;50.950;6.912;2023-04-15T16:34:04;5.72;;;4.68;;
18596;SDS011;9428;50.950;6.912;2023-04-15T16:36:51;7.85;;;4.70;;
18596;SDS011;9428;50.950;6.912;2023-04-15T16:39:38;10.18;;;5.00;;
18596;SDS011;9428;50.950;6.912;2023-04-15T16:42:25;6.38;;;5.18;;
18596;SDS011;9428;50.950;6.912;2023-04-15T16:45:13;9.80;;;5.03;;
18596;SDS011;9428;50.950;6.912;2023-04-15T16:48:00;7.68;;;5.90;;
18596;SDS011;9428;50.950;6.912;2023-04-15T16:50:49;6.30;;;5.40;;
18596;SDS011;9428;50.950;6.912;2023-04-15T16:53:36;8.15;;;5.18;;
18596;SDS011;9428;50.950;6.912;2023-04-15T16:56:23;5.97;;;4.78;;
18596;SDS011;9428;50.950;6.912;2023-04-15T16:59:11;6.80;;;5.40;;
18596;SDS011;9428;50.950;6.912;2023-04-15T17:01:58;7.95;;;5.68;;
18596;SDS011;9428;50.950;6.912;2023-04-15T17:04:46;6.13;;;4.80;;
18596;SDS011;9428;50.950;6.912;2023-04-15T17:07:34;5.57;;;4.22;;